sensor_id;sensor_type;location;lat;lon;timestamp;pressure;altitude;pressure_sealevel;temperature;humidity
5966;BME280;3009;43.224;27.976;2023-05-21T00:01:34;100129.19;;;16.60;69.57
5966;BME280;3009;43.224;27.976;2023-05-21T00:04:02;100122.66;;;16.61;69.32
5966;BME280;3009;43.224;27.976;2023-05-21T00:06:32;100121.28;;;16.71;69.13
5966;BME280;3009;43.224;27.976;2023-05-21T00:09:02;100118.78;;;16.62;69.58
5966;BME280;3009;43.224;27.976;2023-05-21T00:11:31;100117.16;;;16.57;69.40
5966;BME280;3009;43.224;27.976;2023-05-21T00:13:59;100117.50;;;16.56;69.71
5966;BME280;3009;43.224;27.976;2023-05-21T00:16:27;100110.75;;;16.46;70.22
5966;BME280;3009;43.224;27.976;2023-05-21T00:18:58;100117.09;;;16.54;69.98
5966;BME280;3009;43.224;27.976;2023-05-21T00:21:28;100116.72;;;16.55;69.72
5966;BME280;3009;43.224;27.976;2023-05-21T00:23:57;100121.91;;;16.44;70.58
5966;BME280;3009;43.224;27.976;2023-05-21T00:26:25;100127.84;;;16.50;70.15
5966;BME280;3009;43.224;27.976;2023-05-21T00:28:54;100116.72;;;16.55;69.53
5966;BME280;3009;43.224;27.976;2023-05-21T00:31:22;100117.44;;;16.52;69.78
5966;BME280;3009;43.224;27.976;2023-05-21T00:33:51;100103.47;;;16.50;69.72
5966;BME280;3009;43.224;27.976;2023-05-21T00:36:21;100110.38;;;16.47;69.85
5966;BME280;3009;43.224;27.976;2023-05-21T00:38:51;100120.75;;;16.45;70.10
5966;BME280;3009;43.224;27.976;2023-05-21T00:41:19;100108.94;;;16.34;70.78
5966;BME280;3009;43.224;27.976;2023-05-21T00:43:48;100103.16;;;16.36;71.01
5966;BME280;3009;43.224;27.976;2023-05-21T00:46:20;100099.53;;;16.28;71.65
5966;BME280;3009;43.224;27.976;2023-05-21T00:48:49;100110.06;;;16.33;71.33
5966;BME280;3009;43.224;27.976;2023-05-21T00:51:18;100100.75;;;16.30;71.62
5966;BME280;3009;43.224;27.976;2023-05-21T00:53:50;100101.28;;;16.20;72.23
5966;BME280;3009;43.224;27.976;2023-05-21T00:56:19;100105.84;;;16.16;72.38
5966;BME280;3009;43.224;27.976;2023-05-21T00:58:49;100096.25;;;16.19;72.49
5966;BME280;3009;43.224;27.976;2023-05-21T01:01:18;100093.38;;;16.11;72.85
5966;BME280;3009;43.224;27.976;2023-05-21T01:03:46;100092.06;;;16.05;73.30
5966;BME280;3009;43.224;27.976;2023-05-21T01:06:15;100088.84;;;16.00;73.82
5966;BME280;3009;43.224;27.976;2023-05-21T01:08:43;100080.72;;;16.00;73.92
5966;BME280;3009;43.224;27.976;2023-05-21T01:11:13;100075.84;;;15.89;74.61
5966;BME280;3009;43.224;27.976;2023-05-21T01:13:42;100075.38;;;15.84;75.26
5966;BME280;3009;43.224;27.976;2023-05-21T01:16:11;100084.19;;;15.81;75.56
5966;BME280;3009;43.224;27.976;2023-05-21T01:18:40;100077.00;;;15.88;74.97
5966;BME280;3009;43.224;27.976;2023-05-21T01:21:09;100073.78;;;15.83;75.29
5966;BME280;3009;43.224;27.976;2023-05-21T01:23:39;100082.25;;;15.81;75.36
5966;BME280;3009;43.224;27.976;2023-05-21T01:26:07;100077.97;;;15.80;75.54
5966;BME280;3009;43.224;27.976;2023-05-21T01:28:38;100076.75;;;15.77;75.50
5966;BME280;3009;43.224;27.976;2023-05-21T01:31:15;100078.31;;;15.79;75.36
5966;BME280;3009;43.224;27.976;2023-05-21T01:33:50;100077.88;;;15.76;75.09
5966;BME280;3009;43.224;27.976;2023-05-21T01:36:22;100069.31;;;15.74;74.93
5966;BME280;3009;43.224;27.976;2023-05-21T01:38:57;100068.28;;;15.79;74.43
5966;BME280;3009;43.224;27.976;2023-05-21T01:41:30;100067.75;;;15.73;74.38
5966;BME280;3009;43.224;27.976;2023-05-21T01:44:01;100059.88;;;15.68;74.90
5966;BME280;3009;43.224;27.976;2023-05-21T01:46:32;100053.78;;;15.71;74.52
5966;BME280;3009;43.224;27.976;2023-05-21T01:49:03;100047.97;;;15.69;74.51
5966;BME280;3009;43.224;27.976;2023-05-21T01:51:32;100052.31;;;15.74;74.26
5966;BME280;3009;43.224;27.976;2023-05-21T01:54:02;100043.69;;;15.68;74.88
5966;BME280;3009;43.224;27.976;2023-05-21T01:56:31;100045.44;;;15.60;75.37
5966;BME280;3009;43.224;27.976;2023-05-21T01:58:59;100038.31;;;15.52;75.97
5966;BME280;3009;43.224;27.976;2023-05-21T02:01:28;100038.66;;;15.51;75.97
5966;BME280;3009;43.224;27.976;2023-05-21T02:03:56;100033.31;;;15.54;75.66
5966;BME280;3009;43.224;27.976;2023-05-21T02:06:25;100038.03;;;15.57;75.28
5966;BME280;3009;43.224;27.976;2023-05-21T02:08:54;100034.53;;;15.57;75.00
5966;BME280;3009;43.224;27.976;2023-05-21T02:11:24;100032.19;;;15.55;75.07
5966;BME280;3009;43.224;27.976;2023-05-21T02:13:52;100032.72;;;15.61;74.28
5966;BME280;3009;43.224;27.976;2023-05-21T02:16:24;100037.16;;;15.53;74.59
5966;BME280;3009;43.224;27.976;2023-05-21T02:18:52;100033.84;;;15.60;73.90
5966;BME280;3009;43.224;27.976;2023-05-21T02:21:23;100027.56;;;15.56;74.31
5966;BME280;3009;43.224;27.976;2023-05-21T02:23:51;100029.91;;;15.57;73.76
5966;BME280;3009;43.224;27.976;2023-05-21T02:26:20;100030.03;;;15.61;73.53
5966;BME280;3009;43.224;27.976;2023-05-21T02:28:50;100036.91;;;15.58;73.81
5966;BME280;3009;43.224;27.976;2023-05-21T02:31:18;100032.28;;;15.59;73.63
5966;BME280;3009;43.224;27.976;2023-05-21T02:33:47;100027.56;;;15.56;74.05
5966;BME280;3009;43.224;27.976;2023-05-21T02:36:15;100036.53;;;15.44;75.13
5966;BME280;3009;43.224;27.976;2023-05-21T02:38:44;100025.31;;;15.42;75.34
5966;BME280;3009;43.224;27.976;2023-05-21T02:41:13;100029.75;;;15.50;74.97
5966;BME280;3009;43.224;27.976;2023-05-21T02:43:41;100021.56;;;15.47;75.03
5966;BME280;3009;43.224;27.976;2023-05-21T02:46:11;100035.59;;;15.52;74.91
5966;BME280;3009;43.224;27.976;2023-05-21T02:48:40;100032.03;;;15.48;74.77
5966;BME280;3009;43.224;27.976;2023-05-21T02:51:08;100027.84;;;15.51;74.54
5966;BME280;3009;43.224;27.976;2023-05-21T02:53:38;100019.75;;;15.51;74.88
5966;BME280;3009;43.224;27.976;2023-05-21T02:56:06;100021.09;;;15.60;74.21
5966;BME280;3009;43.224;27.976;2023-05-21T02:58:35;100023.91;;;15.64;74.33
5966;BME280;3009;43.224;27.976;2023-05-21T03:01:03;100020.59;;;15.71;73.86
5966;BME280;3009;43.224;27.976;2023-05-21T03:03:33;100027.72;;;15.79;73.18
5966;BME280;3009;43.224;27.976;2023-05-21T03:06:02;100018.97;;;16.02;71.97
5966;BME280;3009;43.224;27.976;2023-05-21T03:08:30;100013.50;;;16.18;71.49
5966;BME280;3009;43.224;27.976;2023-05-21T03:10:59;100011.88;;;16.33;70.23
5966;BME280;3009;43.224;27.976;2023-05-21T03:13:27;100011.03;;;16.48;69.01
5966;BME280;3009;43.224;27.976;2023-05-21T03:15:56;100015.31;;;16.49;68.85
5966;BME280;3009;43.224;27.976;2023-05-21T03:18:24;100014.44;;;16.45;68.93
5966;BME280;3009;43.224;27.976;2023-05-21T03:20:54;100011.13;;;16.32;69.02
5966;BME280;3009;43.224;27.976;2023-05-21T03:23:25;100015.94;;;16.42;68.36
5966;BME280;3009;43.224;27.976;2023-05-21T03:25:54;100023.94;;;16.35;68.43
5966;BME280;3009;43.224;27.976;2023-05-21T03:28:22;100032.78;;;16.52;67.12
5966;BME280;3009;43.224;27.976;2023-05-21T03:30:50;100037.44;;;16.94;64.69
5966;BME280;3009;43.224;27.976;2023-05-21T03:33:19;100030.72;;;17.07;64.23
5966;BME280;3009;43.224;27.976;2023-05-21T03:35:47;100021.19;;;17.40;62.34
5966;BME280;3009;43.224;27.976;2023-05-21T03:38:17;100016.75;;;17.78;60.30
5966;BME280;3009;43.224;27.976;2023-05-21T03:40:46;100026.84;;;17.81;59.31
5966;BME280;3009;43.224;27.976;2023-05-21T03:43:14;100029.03;;;18.26;56.80
5966;BME280;3009;43.224;27.976;2023-05-21T03:45:43;100040.03;;;18.36;56.49
5966;BME280;3009;43.224;27.976;2023-05-21T03:48:11;100033.94;;;18.81;54.77
5966;BME280;3009;43.224;27.976;2023-05-21T03:50:39;100029.75;;;18.53;55.81
5966;BME280;3009;43.224;27.976;2023-05-21T03:53:09;100031.81;;;19.01;53.64
5966;BME280;3009;43.224;27.976;2023-05-21T03:55:39;100044.69;;;19.04;53.59
5966;BME280;3009;43.224;27.976;2023-05-21T03:58:08;100029.72;;;19.24;51.08
5966;BME280;3009;43.224;27.976;2023-05-21T04:00:36;100042.75;;;19.49;49.77
5966;BME280;3009;43.224;27.976;2023-05-21T04:03:05;100032.16;;;19.37;50.08
5966;BME280;3009;43.224;27.976;2023-05-21T04:05:33;100046.06;;;19.76;49.40
5966;BME280;3009;43.224;27.976;2023-05-21T04:08:02;100037.78;;;19.58;49.49
5966;BME280;3009;43.224;27.976;2023-05-21T04:10:31;100047.28;;;19.34;49.98
5966;BME280;3009;43.224;27.976;2023-05-21T04:13:01;100038.72;;;18.91;50.85
5966;BME280;3009;43.224;27.976;2023-05-21T04:15:29;100037.81;;;18.80;51.58
5966;BME280;3009;43.224;27.976;2023-05-21T04:17:58;100025.91;;;18.91;51.03
5966;BME280;3009;43.224;27.976;2023-05-21T04:20:26;100031.84;;;18.67;52.04
5966;BME280;3009;43.224;27.976;2023-05-21T04:22:55;100045.75;;;18.31;52.62
5966;BME280;3009;43.224;27.976;2023-05-21T04:25:23;100038.03;;;18.64;51.60
5966;BME280;3009;43.224;27.976;2023-05-21T04:27:52;100028.88;;;19.17;50.45
5966;BME280;3009;43.224;27.976;2023-05-21T04:30:22;100050.53;;;19.51;49.14
5966;BME280;3009;43.224;27.976;2023-05-21T04:32:50;100043.28;;;19.69;48.40
5966;BME280;3009;43.224;27.976;2023-05-21T04:35:20;100035.19;;;20.57;45.95
5966;BME280;3009;43.224;27.976;2023-05-21T04:37:49;100030.66;;;20.97;45.17
5966;BME280;3009;43.224;27.976;2023-05-21T04:40:18;100027.94;;;21.48;42.65
5966;BME280;3009;43.224;27.976;2023-05-21T04:42:50;100025.59;;;21.68;42.31
5966;BME280;3009;43.224;27.976;2023-05-21T04:45:18;100034.09;;;22.09;41.40
5966;BME280;3009;43.224;27.976;2023-05-21T04:47:49;100026.34;;;21.83;42.18
5966;BME280;3009;43.224;27.976;2023-05-21T04:50:18;100021.34;;;21.56;41.90
5966;BME280;3009;43.224;27.976;2023-05-21T04:52:46;100022.88;;;21.79;41.47
5966;BME280;3009;43.224;27.976;2023-05-21T04:55:14;100034.88;;;22.13;40.74
5966;BME280;3009;43.224;27.976;2023-05-21T04:57:44;100025.50;;;22.11;40.51
5966;BME280;3009;43.224;27.976;2023-05-21T05:00:13;100033.16;;;22.52;40.41
5966;BME280;3009;43.224;27.976;2023-05-21T05:02:42;100029.47;;;21.74;41.16
5966;BME280;3009;43.224;27.976;2023-05-21T05:05:12;100029.09;;;21.75;41.42
5966;BME280;3009;43.224;27.976;2023-05-21T05:07:41;100037.63;;;20.87;42.80
5966;BME280;3009;43.224;27.976;2023-05-21T05:10:09;100037.69;;;21.49;41.96
5966;BME280;3009;43.224;27.976;2023-05-21T05:12:38;100036.91;;;21.45;41.10
5966;BME280;3009;43.224;27.976;2023-05-21T05:15:07;100040.75;;;22.01;40.41
5966;BME280;3009;43.224;27.976;2023-05-21T05:17:36;100041.22;;;21.64;40.81
5966;BME280;3009;43.224;27.976;2023-05-21T05:20:06;100042.72;;;21.18;41.62
5966;BME280;3009;43.224;27.976;2023-05-21T05:22:37;100039.63;;;21.23;42.23
5966;BME280;3009;43.224;27.976;2023-05-21T05:25:06;100045.41;;;20.89;42.09
5966;BME280;3009;43.224;27.976;2023-05-21T05:27:34;100052.06;;;21.06;41.83
5966;BME280;3009;43.224;27.976;2023-05-21T05:30:05;100036.50;;;21.28;40.44
5966;BME280;3009;43.224;27.976;2023-05-21T05:32:34;100034.59;;;21.39;40.00
5966;BME280;3009;43.224;27.976;2023-05-21T05:35:03;100033.81;;;21.42;40.46
5966;BME280;3009;43.224;27.976;2023-05-21T05:37:31;100035.75;;;21.53;41.04
5966;BME280;3009;43.224;27.976;2023-05-21T05:40:02;100033.03;;;21.56;41.49
5966;BME280;3009;43.224;27.976;2023-05-21T05:42:31;100031.06;;;21.32;41.92
5966;BME280;3009;43.224;27.976;2023-05-21T05:44:59;100040.81;;;21.36;41.31
5966;BME280;3009;43.224;27.976;2023-05-21T05:47:28;100043.13;;;21.02;42.12
5966;BME280;3009;43.224;27.976;2023-05-21T05:49:57;100056.28;;;20.67;42.00
5966;BME280;3009;43.224;27.976;2023-05-21T05:52:25;100041.56;;;21.19;41.56
5966;BME280;3009;43.224;27.976;2023-05-21T05:54:53;100036.88;;;21.48;40.55
5966;BME280;3009;43.224;27.976;2023-05-21T05:57:23;100046.28;;;21.58;39.93
5966;BME280;3009;43.224;27.976;2023-05-21T05:59:52;100031.47;;;21.52;40.10
5966;BME280;3009;43.224;27.976;2023-05-21T06:02:20;100035.72;;;21.71;39.11
5966;BME280;3009;43.224;27.976;2023-05-21T06:04:48;100043.88;;;21.96;39.31
5966;BME280;3009;43.224;27.976;2023-05-21T06:07:17;100022.91;;;22.74;38.34
5966;BME280;3009;43.224;27.976;2023-05-21T06:09:46;100034.09;;;24.61;35.25
5966;BME280;3009;43.224;27.976;2023-05-21T06:12:14;100029.59;;;25.25;33.94
5966;BME280;3009;43.224;27.976;2023-05-21T06:14:44;100028.44;;;25.94;32.82
5966;BME280;3009;43.224;27.976;2023-05-21T06:17:14;100028.13;;;25.44;32.87
5966;BME280;3009;43.224;27.976;2023-05-21T06:19:43;100040.66;;;24.94;33.55
5966;BME280;3009;43.224;27.976;2023-05-21T06:22:11;100031.03;;;25.10;33.54
5966;BME280;3009;43.224;27.976;2023-05-21T06:24:40;100036.84;;;24.27;34.76
5966;BME280;3009;43.224;27.976;2023-05-21T06:27:08;100042.63;;;23.07;37.03
5966;BME280;3009;43.224;27.976;2023-05-21T06:29:36;100036.50;;;22.85;37.09
5966;BME280;3009;43.224;27.976;2023-05-21T06:32:08;100031.00;;;22.00;39.31
5966;BME280;3009;43.224;27.976;2023-05-21T06:34:36;100030.22;;;21.96;39.40
5966;BME280;3009;43.224;27.976;2023-05-21T06:37:05;100023.66;;;21.72;39.67
5966;BME280;3009;43.224;27.976;2023-05-21T06:39:33;100030.56;;;22.12;39.54
5966;BME280;3009;43.224;27.976;2023-05-21T06:42:01;100027.53;;;21.92;40.38
5966;BME280;3009;43.224;27.976;2023-05-21T06:44:30;100027.00;;;22.37;39.71
5966;BME280;3009;43.224;27.976;2023-05-21T06:46:58;100033.25;;;23.05;38.65
5966;BME280;3009;43.224;27.976;2023-05-21T06:49:28;100029.56;;;22.70;38.90
5966;BME280;3009;43.224;27.976;2023-05-21T06:51:58;100020.25;;;22.60;38.79
5966;BME280;3009;43.224;27.976;2023-05-21T06:54:27;100015.59;;;23.20;37.61
5966;BME280;3009;43.224;27.976;2023-05-21T06:56:55;100017.94;;;23.18;37.71
5966;BME280;3009;43.224;27.976;2023-05-21T06:59:24;100023.19;;;22.87;38.61
5966;BME280;3009;43.224;27.976;2023-05-21T07:01:52;100022.75;;;22.96;38.04
5966;BME280;3009;43.224;27.976;2023-05-21T07:04:20;100028.16;;;23.10;38.67
5966;BME280;3009;43.224;27.976;2023-05-21T07:06:50;100042.88;;;23.73;36.39
5966;BME280;3009;43.224;27.976;2023-05-21T07:09:19;100021.59;;;25.11;34.95
5966;BME280;3009;43.224;27.976;2023-05-21T07:11:47;100030.38;;;25.93;33.98
5966;BME280;3009;43.224;27.976;2023-05-21T07:14:16;100021.63;;;25.35;33.16
5966;BME280;3009;43.224;27.976;2023-05-21T07:16:44;100028.66;;;24.85;34.00
5966;BME280;3009;43.224;27.976;2023-05-21T07:19:14;100054.03;;;25.87;32.40
5966;BME280;3009;43.224;27.976;2023-05-21T07:21:44;100026.84;;;24.44;35.15
5966;BME280;3009;43.224;27.976;2023-05-21T07:24:14;100027.06;;;24.26;35.90
5966;BME280;3009;43.224;27.976;2023-05-21T07:26:42;100023.31;;;23.74;36.59
5966;BME280;3009;43.224;27.976;2023-05-21T07:29:11;100022.31;;;23.05;38.27
5966;BME280;3009;43.224;27.976;2023-05-21T07:31:39;100018.91;;;22.93;38.63
5966;BME280;3009;43.224;27.976;2023-05-21T07:34:08;100026.38;;;23.38;37.82
5966;BME280;3009;43.224;27.976;2023-05-21T07:36:36;100027.09;;;25.11;35.43
5966;BME280;3009;43.224;27.976;2023-05-21T07:39:05;100020.53;;;25.28;35.43
5966;BME280;3009;43.224;27.976;2023-05-21T07:41:35;100021.56;;;24.60;37.16
5966;BME280;3009;43.224;27.976;2023-05-21T07:44:03;100023.34;;;24.43;37.14
5966;BME280;3009;43.224;27.976;2023-05-21T07:46:32;100052.88;;;24.63;36.46
5966;BME280;3009;43.224;27.976;2023-05-21T07:49:00;100030.63;;;23.84;39.02
5966;BME280;3009;43.224;27.976;2023-05-21T07:51:28;100038.63;;;24.06;38.97
5966;BME280;3009;43.224;27.976;2023-05-21T07:53:57;100030.41;;;24.40;39.55
5966;BME280;3009;43.224;27.976;2023-05-21T07:56:25;100037.66;;;24.23;39.96
5966;BME280;3009;43.224;27.976;2023-05-21T07:58:56;100034.09;;;24.61;39.68
5966;BME280;3009;43.224;27.976;2023-05-21T08:01:26;100025.25;;;23.32;41.89
5966;BME280;3009;43.224;27.976;2023-05-21T08:03:55;100049.25;;;23.59;42.33
5966;BME280;3009;43.224;27.976;2023-05-21T08:06:26;100036.13;;;23.84;42.62
5966;BME280;3009;43.224;27.976;2023-05-21T08:08:55;100068.00;;;23.08;43.36
5966;BME280;3009;43.224;27.976;2023-05-21T08:11:24;100040.16;;;22.57;44.49
5966;BME280;3009;43.224;27.976;2023-05-21T08:13:52;100038.13;;;22.75;44.49
5966;BME280;3009;43.224;27.976;2023-05-21T08:16:22;100040.22;;;22.50;45.22
5966;BME280;3009;43.224;27.976;2023-05-21T08:18:51;100047.47;;;22.81;45.47
5966;BME280;3009;43.224;27.976;2023-05-21T08:21:19;100049.91;;;22.65;46.48
5966;BME280;3009;43.224;27.976;2023-05-21T08:23:51;100036.81;;;22.17;47.97
5966;BME280;3009;43.224;27.976;2023-05-21T08:26:19;100034.44;;;22.33;46.94
5966;BME280;3009;43.224;27.976;2023-05-21T08:28:48;100071.97;;;21.89;48.17
5966;BME280;3009;43.224;27.976;2023-05-21T08:31:17;100044.56;;;22.36;47.85
5966;BME280;3009;43.224;27.976;2023-05-21T08:33:50;100055.38;;;22.65;47.26
5966;BME280;3009;43.224;27.976;2023-05-21T08:36:19;100042.09;;;22.60;47.17
5966;BME280;3009;43.224;27.976;2023-05-21T08:38:48;100038.66;;;23.19;45.69
5966;BME280;3009;43.224;27.976;2023-05-21T08:41:17;100053.63;;;23.52;44.82
5966;BME280;3009;43.224;27.976;2023-05-21T08:43:54;100045.66;;;23.24;45.66
5966;BME280;3009;43.224;27.976;2023-05-21T08:46:22;100054.53;;;23.35;46.43
5966;BME280;3009;43.224;27.976;2023-05-21T08:48:54;100044.72;;;23.83;43.70
5966;BME280;3009;43.224;27.976;2023-05-21T08:51:22;100046.59;;;23.51;44.73
5966;BME280;3009;43.224;27.976;2023-05-21T08:53:51;100059.56;;;23.44;43.09
5966;BME280;3009;43.224;27.976;2023-05-21T08:56:20;100049.81;;;23.84;44.46
5966;BME280;3009;43.224;27.976;2023-05-21T08:58:51;100065.94;;;23.71;43.67
5966;BME280;3009;43.224;27.976;2023-05-21T09:01:20;100067.72;;;23.96;44.11
5966;BME280;3009;43.224;27.976;2023-05-21T09:03:55;100057.72;;;23.75;43.78
5966;BME280;3009;43.224;27.976;2023-05-21T09:06:39;100057.22;;;23.87;43.38
5966;BME280;3009;43.224;27.976;2023-05-21T09:09:12;100076.53;;;23.69;44.29
5966;BME280;3009;43.224;27.976;2023-05-21T09:11:44;100088.06;;;23.46;42.96
5966;BME280;3009;43.224;27.976;2023-05-21T09:14:13;100077.53;;;23.41;44.01
5966;BME280;3009;43.224;27.976;2023-05-21T09:16:44;100086.25;;;22.55;46.00
5966;BME280;3009;43.224;27.976;2023-05-21T09:19:15;100075.41;;;23.14;45.03
5966;BME280;3009;43.224;27.976;2023-05-21T09:21:44;100081.41;;;22.84;46.22
5966;BME280;3009;43.224;27.976;2023-05-21T09:24:13;100081.94;;;23.31;44.98
5966;BME280;3009;43.224;27.976;2023-05-21T09:26:42;100077.53;;;23.45;44.09
5966;BME280;3009;43.224;27.976;2023-05-21T09:29:12;100093.41;;;23.12;44.85
5966;BME280;3009;43.224;27.976;2023-05-21T09:31:42;100076.31;;;22.93;46.04
5966;BME280;3009;43.224;27.976;2023-05-21T09:34:12;100081.59;;;22.44;47.57
5966;BME280;3009;43.224;27.976;2023-05-21T09:36:42;100072.00;;;22.92;46.26
5966;BME280;3009;43.224;27.976;2023-05-21T09:39:10;100085.78;;;23.38;45.42
5966;BME280;3009;43.224;27.976;2023-05-21T09:41:42;100090.50;;;23.33;45.37
5966;BME280;3009;43.224;27.976;2023-05-21T09:44:10;100078.88;;;23.22;46.00
5966;BME280;3009;43.224;27.976;2023-05-21T09:46:39;100065.59;;;23.69;45.63
5966;BME280;3009;43.224;27.976;2023-05-21T09:49:21;100078.56;;;23.06;46.43
5966;BME280;3009;43.224;27.976;2023-05-21T09:51:55;100083.28;;;23.01;47.15
5966;BME280;3009;43.224;27.976;2023-05-21T09:54:25;100080.31;;;22.74;47.12
5966;BME280;3009;43.224;27.976;2023-05-21T09:56:59;100078.09;;;22.44;46.80
5966;BME280;3009;43.224;27.976;2023-05-21T09:59:35;100070.88;;;22.86;45.64
5966;BME280;3009;43.224;27.976;2023-05-21T10:02:15;100087.34;;;22.68;45.94
5966;BME280;3009;43.224;27.976;2023-05-21T10:04:47;100093.94;;;22.78;45.88
5966;BME280;3009;43.224;27.976;2023-05-21T10:07:18;100085.09;;;22.48;46.29
5966;BME280;3009;43.224;27.976;2023-05-21T10:09:47;100070.53;;;22.77;46.46
5966;BME280;3009;43.224;27.976;2023-05-21T10:12:17;100081.16;;;22.60;45.84
5966;BME280;3009;43.224;27.976;2023-05-21T10:14:50;100062.53;;;22.16;47.18
5966;BME280;3009;43.224;27.976;2023-05-21T10:17:19;100070.66;;;22.44;45.96
5966;BME280;3009;43.224;27.976;2023-05-21T10:19:50;100063.69;;;22.25;46.20
5966;BME280;3009;43.224;27.976;2023-05-21T10:22:21;100078.03;;;22.55;45.56
5966;BME280;3009;43.224;27.976;2023-05-21T10:24:51;100067.59;;;22.35;45.51
5966;BME280;3009;43.224;27.976;2023-05-21T10:27:20;100083.13;;;22.56;45.73
5966;BME280;3009;43.224;27.976;2023-05-21T10:29:49;100074.63;;;22.15;46.96
5966;BME280;3009;43.224;27.976;2023-05-21T10:32:21;100066.41;;;22.33;46.30
5966;BME280;3009;43.224;27.976;2023-05-21T10:34:52;100083.59;;;22.19;47.23
5966;BME280;3009;43.224;27.976;2023-05-21T10:37:23;100077.28;;;22.43;47.66
5966;BME280;3009;43.224;27.976;2023-05-21T10:39:52;100072.47;;;22.76;46.10
5966;BME280;3009;43.224;27.976;2023-05-21T10:45:15;100083.03;;;22.74;45.24
5966;BME280;3009;43.224;27.976;2023-05-21T10:51:03;100080.31;;;22.71;45.39
5966;BME280;3009;43.224;27.976;2023-05-21T10:53:47;100090.28;;;23.06;45.10
5966;BME280;3009;43.224;27.976;2023-05-21T10:56:23;100078.19;;;23.00;44.80
5966;BME280;3009;43.224;27.976;2023-05-21T11:01:49;100079.94;;;23.81;42.06
5966;BME280;3009;43.224;27.976;2023-05-21T11:04:22;100071.41;;;23.30;41.62
5966;BME280;3009;43.224;27.976;2023-05-21T11:06:53;100079.72;;;23.61;42.57
5966;BME280;3009;43.224;27.976;2023-05-21T11:09:23;100079.19;;;23.28;41.56
5966;BME280;3009;43.224;27.976;2023-05-21T11:11:56;100079.16;;;23.39;41.93
5966;BME280;3009;43.224;27.976;2023-05-21T11:14:29;100083.69;;;23.56;41.92
5966;BME280;3009;43.224;27.976;2023-05-21T11:17:02;100082.66;;;23.35;41.62
5966;BME280;3009;43.224;27.976;2023-05-21T11:19:34;100076.59;;;23.06;42.38
5966;BME280;3009;43.224;27.976;2023-05-21T11:22:05;100081.88;;;22.68;42.41
5966;BME280;3009;43.224;27.976;2023-05-21T11:24:39;100066.81;;;23.16;40.95
5966;BME280;3009;43.224;27.976;2023-05-21T11:27:08;100067.22;;;23.11;41.02
5966;BME280;3009;43.224;27.976;2023-05-21T11:29:39;100063.72;;;23.03;42.69
5966;BME280;3009;43.224;27.976;2023-05-21T11:32:09;100076.19;;;23.11;42.25
5966;BME280;3009;43.224;27.976;2023-05-21T11:34:44;100066.53;;;23.48;39.82
5966;BME280;3009;43.224;27.976;2023-05-21T11:37:40;100069.19;;;23.03;41.11
5966;BME280;3009;43.224;27.976;2023-05-21T11:40:34;100084.84;;;22.99;41.03
5966;BME280;3009;43.224;27.976;2023-05-21T11:43:04;100076.69;;;22.92;42.16
5966;BME280;3009;43.224;27.976;2023-05-21T11:45:33;100071.13;;;23.10;42.52
5966;BME280;3009;43.224;27.976;2023-05-21T11:48:02;100071.13;;;23.13;42.39
5966;BME280;3009;43.224;27.976;2023-05-21T11:50:32;100084.19;;;22.73;43.85
5966;BME280;3009;43.224;27.976;2023-05-21T11:53:02;100077.28;;;22.43;44.28
5966;BME280;3009;43.224;27.976;2023-05-21T11:55:30;100079.63;;;22.45;45.08
5966;BME280;3009;43.224;27.976;2023-05-21T11:58:00;100078.94;;;22.08;46.57
5966;BME280;3009;43.224;27.976;2023-05-21T12:00:29;100078.19;;;21.93;47.39
5966;BME280;3009;43.224;27.976;2023-05-21T12:03:00;100077.78;;;22.02;47.15
5966;BME280;3009;43.224;27.976;2023-05-21T12:05:28;100068.84;;;21.84;48.70
5966;BME280;3009;43.224;27.976;2023-05-21T12:07:57;100078.22;;;21.83;49.80
5966;BME280;3009;43.224;27.976;2023-05-21T12:10:25;100080.94;;;21.79;51.29
5966;BME280;3009;43.224;27.976;2023-05-21T12:12:53;100076.31;;;21.54;53.41
5966;BME280;3009;43.224;27.976;2023-05-21T12:15:25;100075.88;;;21.38;55.70
5966;BME280;3009;43.224;27.976;2023-05-21T12:17:54;100078.22;;;21.39;56.87
5966;BME280;3009;43.224;27.976;2023-05-21T12:20:25;100089.03;;;21.00;58.97
5966;BME280;3009;43.224;27.976;2023-05-21T12:22:56;100067.19;;;20.82;61.04
5966;BME280;3009;43.224;27.976;2023-05-21T12:25:25;100081.59;;;20.75;61.41
5966;BME280;3009;43.224;27.976;2023-05-21T12:27:54;100064.09;;;20.80;61.89
5966;BME280;3009;43.224;27.976;2023-05-21T12:30:26;100073.09;;;21.05;60.27
5966;BME280;3009;43.224;27.976;2023-05-21T12:32:57;100068.44;;;21.13;57.75
5966;BME280;3009;43.224;27.976;2023-05-21T12:35:26;100067.59;;;20.87;57.88
5966;BME280;3009;43.224;27.976;2023-05-21T12:37:54;100063.38;;;21.19;57.04
5966;BME280;3009;43.224;27.976;2023-05-21T12:40:33;100059.16;;;21.57;56.86
5966;BME280;3009;43.224;27.976;2023-05-21T12:43:02;100058.72;;;21.73;55.68
5966;BME280;3009;43.224;27.976;2023-05-21T12:45:32;100050.44;;;22.20;55.89
5966;BME280;3009;43.224;27.976;2023-05-21T12:48:02;100057.34;;;22.57;53.42
5966;BME280;3009;43.224;27.976;2023-05-21T12:50:32;100062.06;;;22.50;53.02
5966;BME280;3009;43.224;27.976;2023-05-21T12:53:01;100074.47;;;22.72;49.97
5966;BME280;3009;43.224;27.976;2023-05-21T12:55:30;100055.31;;;22.76;51.90
5966;BME280;3009;43.224;27.976;2023-05-21T12:58:02;100055.44;;;22.43;51.88
5966;BME280;3009;43.224;27.976;2023-05-21T13:00:36;100052.75;;;22.36;53.34
5966;BME280;3009;43.224;27.976;2023-05-21T13:03:04;100048.19;;;21.83;50.71
5966;BME280;3009;43.224;27.976;2023-05-21T13:05:33;100045.06;;;21.84;48.36
5966;BME280;3009;43.224;27.976;2023-05-21T13:08:01;100049.78;;;21.55;47.87
5966;BME280;3009;43.224;27.976;2023-05-21T13:10:30;100050.16;;;21.32;47.49
5966;BME280;3009;43.224;27.976;2023-05-21T13:12:58;100043.13;;;21.41;48.23
5966;BME280;3009;43.224;27.976;2023-05-21T13:15:27;100066.53;;;21.50;47.61
5966;BME280;3009;43.224;27.976;2023-05-21T13:17:57;100044.31;;;21.48;49.18
5966;BME280;3009;43.224;27.976;2023-05-21T13:20:27;100055.22;;;21.58;48.43
5966;BME280;3009;43.224;27.976;2023-05-21T13:22:56;100043.16;;;21.63;47.57